createdAt,value
2023-09-08T00:00:28.425Z,19.00
2023-09-08T00:02:55.558Z,19.00
2023-09-08T00:05:22.680Z,18.90
2023-09-08T00:07:50.577Z,18.80
2023-09-08T00:10:17.836Z,18.80
2023-09-08T00:12:44.969Z,18.80
2023-09-08T00:15:12.742Z,18.70
2023-09-08T00:17:41.249Z,18.90
2023-09-08T00:20:09.190Z,18.80
2023-09-08T00:22:36.315Z,18.80
2023-09-08T00:25:03.507Z,18.80
2023-09-08T00:27:30.764Z,18.80
2023-09-08T00:29:57.858Z,18.80
2023-09-08T00:32:25.024Z,18.70
2023-09-08T00:34:53.552Z,18.60
2023-09-08T00:37:20.651Z,18.70
2023-09-08T00:39:48.224Z,18.60
2023-09-08T00:42:15.337Z,18.60
2023-09-08T00:44:42.400Z,18.50
2023-09-08T00:47:09.539Z,18.40
2023-09-08T00:49:36.774Z,18.40
2023-09-08T00:52:06.366Z,18.50
2023-09-08T00:54:33.458Z,18.40
2023-09-08T00:57:03.147Z,18.30
2023-09-08T00:59:32.300Z,18.30
2023-09-08T01:01:59.791Z,18.30
2023-09-08T01:04:27.023Z,18.20
2023-09-08T01:06:55.383Z,18.20
2023-09-08T01:09:25.373Z,18.20
2023-09-08T01:11:52.995Z,18.20
2023-09-08T01:14:20.289Z,18.20
2023-09-08T01:16:47.540Z,18.20
2023-09-08T01:19:17.140Z,18.20
2023-09-08T01:22:16.670Z,18.10
2023-09-08T01:27:38.306Z,18.10
2023-09-08T01:30:07.613Z,18.00
2023-09-08T01:32:36.118Z,18.00
2023-09-08T01:35:04.213Z,17.90
2023-09-08T01:37:31.304Z,17.90
2023-09-08T01:39:58.408Z,17.90
2023-09-08T01:42:25.890Z,17.80
2023-09-08T01:44:54.456Z,17.90
2023-09-08T01:47:21.499Z,17.80
2023-09-08T01:49:48.621Z,17.90
2023-09-08T01:52:15.717Z,17.90
2023-09-08T01:54:43.047Z,17.80
2023-09-08T01:57:10.332Z,17.80
2023-09-08T01:59:37.404Z,17.80
2023-09-08T02:02:06.000Z,17.80
2023-09-08T02:04:33.268Z,17.80
2023-09-08T02:07:00.398Z,17.70
2023-09-08T02:09:32.566Z,17.70
2023-09-08T02:11:59.922Z,17.70
2023-09-08T02:14:27.137Z,17.70
2023-09-08T02:16:54.356Z,17.60
2023-09-08T02:19:23.305Z,17.60
2023-09-08T02:21:50.541Z,17.60
2023-09-08T02:24:17.687Z,17.50
2023-09-08T02:26:44.783Z,17.50
2023-09-08T02:29:11.894Z,17.50
2023-09-08T02:31:38.971Z,17.50
2023-09-08T02:34:06.032Z,17.40
2023-09-08T02:36:34.550Z,17.50
2023-09-08T02:39:01.687Z,17.50
2023-09-08T02:41:28.782Z,17.40
2023-09-08T02:43:56.788Z,17.40
2023-09-08T02:46:23.956Z,17.30
2023-09-08T02:48:51.962Z,17.30
2023-09-08T02:51:22.704Z,17.30
2023-09-08T02:53:51.178Z,17.30
2023-09-08T02:56:19.464Z,17.20
2023-09-08T02:58:46.650Z,17.20
2023-09-08T03:01:15.328Z,17.20
2023-09-08T03:03:43.209Z,17.20
2023-09-08T03:06:10.388Z,17.20
2023-09-08T03:08:38.065Z,17.20
2023-09-08T03:11:09.177Z,17.20
2023-09-08T03:13:36.397Z,17.20
2023-09-08T03:16:04.903Z,17.10
2023-09-08T03:18:32.891Z,17.10
2023-09-08T03:21:00.719Z,17.10
2023-09-08T03:23:27.797Z,17.00
2023-09-08T03:25:54.880Z,17.00
2023-09-08T03:28:23.321Z,17.00
2023-09-08T03:30:50.464Z,17.10
2023-09-08T03:33:17.665Z,17.10
2023-09-08T03:35:44.928Z,17.00
2023-09-08T03:38:11.971Z,17.00
2023-09-08T03:40:39.026Z,17.00
2023-09-08T03:43:06.193Z,16.90
2023-09-08T03:45:34.879Z,17.00
2023-09-08T03:48:02.123Z,17.00
2023-09-08T03:50:31.079Z,16.90
2023-09-08T03:52:58.208Z,16.90
2023-09-08T03:55:25.533Z,16.80
2023-09-08T03:57:52.621Z,16.80
2023-09-08T04:00:20.532Z,16.80
2023-09-08T04:02:49.189Z,16.80
2023-09-08T04:05:17.087Z,16.80
2023-09-08T04:07:44.288Z,16.80
2023-09-08T04:10:11.531Z,16.70
2023-09-08T04:12:39.720Z,16.70
2023-09-08T04:15:07.760Z,16.80
2023-09-08T04:17:34.919Z,16.80
2023-09-08T04:20:04.055Z,16.70
2023-09-08T04:22:31.234Z,16.70
2023-09-08T04:24:58.407Z,16.70
2023-09-08T04:27:25.584Z,16.70
2023-09-08T04:29:52.709Z,16.60
2023-09-08T04:32:20.686Z,16.60
2023-09-08T04:34:47.757Z,16.50
2023-09-08T04:37:16.186Z,16.50
2023-09-08T04:39:43.399Z,16.50
2023-09-08T04:42:10.540Z,16.60
2023-09-08T04:44:37.611Z,16.60
2023-09-08T04:47:06.019Z,16.60
2023-09-08T04:49:33.193Z,16.60
2023-09-08T04:52:00.327Z,16.50
2023-09-08T04:54:29.207Z,16.50
2023-09-08T04:57:04.050Z,16.50
2023-09-08T04:59:40.616Z,16.50
2023-09-08T05:02:07.849Z,16.50
2023-09-08T05:04:34.990Z,16.50
2023-09-08T05:07:02.080Z,16.60
2023-09-08T05:09:30.463Z,16.50
2023-09-08T05:11:57.547Z,16.80
2023-09-08T05:14:24.674Z,17.20
2023-09-08T05:16:51.812Z,17.30
2023-09-08T05:19:18.908Z,17.60
2023-09-08T05:21:46.172Z,17.80
2023-09-08T05:24:13.429Z,18.00
2023-09-08T05:26:42.972Z,17.90
2023-09-08T05:29:10.183Z,18.00
2023-09-08T05:31:37.609Z,18.10
2023-09-08T05:34:04.773Z,18.10
2023-09-08T05:36:31.897Z,18.20
2023-09-08T05:38:59.342Z,18.30
2023-09-08T05:41:26.411Z,18.50
2023-09-08T05:43:54.860Z,18.50
2023-09-08T05:46:22.094Z,18.60
2023-09-08T05:48:49.173Z,18.60
2023-09-08T05:51:16.468Z,18.30
2023-09-08T05:53:43.589Z,17.90
2023-09-08T05:56:11.399Z,17.80
2023-09-08T05:58:38.643Z,17.80
2023-09-08T06:01:09.676Z,17.70
2023-09-08T06:03:37.083Z,17.80
2023-09-08T06:06:10.427Z,17.70
2023-09-08T06:08:37.907Z,17.70
2023-09-08T06:11:06.743Z,17.60
2023-09-08T06:13:35.773Z,17.70
2023-09-08T06:16:02.878Z,17.80
2023-09-08T06:18:31.428Z,17.70
2023-09-08T06:20:58.900Z,17.80
2023-09-08T06:23:26.101Z,17.80
2023-09-08T06:25:57.546Z,17.80
2023-09-08T06:28:26.415Z,17.90
2023-09-08T06:30:55.811Z,17.90
2023-09-08T06:33:23.207Z,17.90
2023-09-08T06:36:17.872Z,17.90
2023-09-08T06:38:45.084Z,18.00
2023-09-08T06:41:12.612Z,18.00
2023-09-08T06:43:39.900Z,18.10
2023-09-08T06:46:07.035Z,18.10
2023-09-08T06:48:37.433Z,18.20
2023-09-08T06:51:05.849Z,18.20
2023-09-08T06:53:37.627Z,18.20
2023-09-08T06:56:07.932Z,18.30
2023-09-08T06:58:35.276Z,18.40
2023-09-08T07:01:02.719Z,18.40
2023-09-08T07:03:30.557Z,18.40
2023-09-08T07:05:57.810Z,18.50
2023-09-08T07:08:26.354Z,18.60
2023-09-08T07:10:54.897Z,18.60
2023-09-08T07:13:22.186Z,18.70
2023-09-08T07:15:49.408Z,18.70
2023-09-08T07:18:16.507Z,18.70
2023-09-08T07:20:47.746Z,18.80
2023-09-08T07:23:14.821Z,18.90
2023-09-08T07:25:45.786Z,18.90
2023-09-08T07:28:14.380Z,19.00
2023-09-08T07:30:41.784Z,19.00
2023-09-08T07:33:09.032Z,19.10
2023-09-08T07:35:39.028Z,19.20
2023-09-08T07:38:06.331Z,19.30
2023-09-08T07:40:33.890Z,19.50
2023-09-08T07:43:01.022Z,19.40
2023-09-08T07:45:29.517Z,19.50
2023-09-08T07:47:56.732Z,19.60
2023-09-08T07:50:26.279Z,19.70
2023-09-08T07:52:54.997Z,19.80
2023-09-08T07:55:22.826Z,19.90
2023-09-08T07:57:51.502Z,20.00
2023-09-08T08:00:19.139Z,20.10
2023-09-08T08:02:51.024Z,20.10
2023-09-08T08:05:18.750Z,20.20
2023-09-08T08:07:45.887Z,20.20
2023-09-08T08:10:14.094Z,20.30
2023-09-08T08:12:42.162Z,20.20
2023-09-08T08:15:10.681Z,20.40
2023-09-08T08:17:38.321Z,20.50
2023-09-08T08:20:09.017Z,20.50
2023-09-08T08:22:36.724Z,20.70
2023-09-08T08:25:05.475Z,20.70
2023-09-08T08:27:32.887Z,20.80
2023-09-08T08:30:00.094Z,20.90
2023-09-08T08:32:27.324Z,21.00
2023-09-08T08:34:55.334Z,21.10
2023-09-08T08:37:23.960Z,21.20
2023-09-08T08:39:51.071Z,21.40
2023-09-08T08:42:18.490Z,21.50
2023-09-08T08:44:45.760Z,21.60
2023-09-08T08:47:17.658Z,21.80
2023-09-08T08:49:45.398Z,22.00
2023-09-08T08:52:16.362Z,22.00
2023-09-08T08:54:45.975Z,22.10
2023-09-08T08:57:13.764Z,22.30
2023-09-08T08:59:42.939Z,22.40
2023-09-08T09:02:12.693Z,22.40
2023-09-08T09:04:40.262Z,22.40
2023-09-08T09:07:08.519Z,22.60
2023-09-08T09:09:35.874Z,22.70
2023-09-08T09:12:04.851Z,22.80
2023-09-08T09:14:34.110Z,22.80
2023-09-08T09:17:01.523Z,23.00
2023-09-08T09:19:28.824Z,23.20
2023-09-08T09:21:56.704Z,23.30
2023-09-08T09:24:32.127Z,23.40
2023-09-08T09:26:59.737Z,23.60
2023-09-08T09:29:29.001Z,23.70
2023-09-08T09:31:57.548Z,23.80
2023-09-08T09:34:25.000Z,23.80
2023-09-08T09:36:52.907Z,23.90
2023-09-08T09:39:21.054Z,24.00
2023-09-08T09:41:48.976Z,24.10
2023-09-08T09:44:16.811Z,24.30
2023-09-08T09:46:46.712Z,24.50
2023-09-08T09:49:14.102Z,24.50
2023-09-08T09:51:43.343Z,24.60
2023-09-08T09:54:10.506Z,24.70
2023-09-08T09:56:43.156Z,24.70
2023-09-08T09:59:14.933Z,24.70
2023-09-08T10:01:43.380Z,24.90
2023-09-08T10:04:21.183Z,25.00
2023-09-08T10:06:48.545Z,25.30
2023-09-08T10:09:16.293Z,25.30
2023-09-08T10:11:46.257Z,25.50
2023-09-08T10:14:15.160Z,25.70
2023-09-08T10:16:45.354Z,25.70
2023-09-08T10:19:14.194Z,25.80
2023-09-08T10:21:42.980Z,26.10
2023-09-08T10:24:22.745Z,26.10
2023-09-08T10:26:57.192Z,26.10
2023-09-08T10:29:32.761Z,26.10
2023-09-08T10:32:03.159Z,26.10
2023-09-08T10:34:34.094Z,26.20
2023-09-08T10:37:04.515Z,26.20
2023-09-08T10:39:33.616Z,26.40
2023-09-08T10:42:23.165Z,26.40
2023-09-08T10:45:01.161Z,26.40
2023-09-08T10:47:34.554Z,26.60
2023-09-08T10:50:03.261Z,26.70
2023-09-08T10:52:30.431Z,26.80
2023-09-08T10:54:58.963Z,27.00
2023-09-08T10:57:26.823Z,27.10
2023-09-08T10:59:55.609Z,27.20
2023-09-08T11:02:40.289Z,27.30
2023-09-08T11:05:11.622Z,27.40
2023-09-08T11:07:39.425Z,27.50
2023-09-08T11:10:08.422Z,27.40
2023-09-08T11:12:36.273Z,27.70
2023-09-08T11:15:05.074Z,27.90
2023-09-08T11:17:32.538Z,27.90
2023-09-08T11:19:59.814Z,28.10
2023-09-08T11:22:28.540Z,28.40
2023-09-08T11:24:57.932Z,28.60
2023-09-08T11:27:25.405Z,28.80
2023-09-08T11:29:52.695Z,29.20
2023-09-08T11:32:19.870Z,29.30
2023-09-08T11:34:46.999Z,29.40
2023-09-08T11:37:15.586Z,29.50
2023-09-08T11:39:44.659Z,29.80
2023-09-08T11:42:14.528Z,29.90
2023-09-08T11:44:43.158Z,30.20
2023-09-08T11:47:11.389Z,30.10
2023-09-08T11:49:39.559Z,30.00
2023-09-08T11:52:07.280Z,29.90
2023-09-08T11:54:36.475Z,30.20
2023-09-08T11:57:06.545Z,30.30
2023-09-08T11:59:34.937Z,30.40
2023-09-08T12:02:02.324Z,30.40
2023-09-08T12:04:29.472Z,30.90
2023-09-08T12:06:56.795Z,30.90
2023-09-08T12:09:24.281Z,31.00
2023-09-08T12:11:51.529Z,31.00
2023-09-08T12:14:20.350Z,30.80
2023-09-08T12:16:47.923Z,31.10
2023-09-08T12:19:31.759Z,31.20
2023-09-08T12:22:01.808Z,31.30
2023-09-08T12:24:48.058Z,31.10
2023-09-08T12:27:15.813Z,31.30
2023-09-08T12:29:52.608Z,31.30
2023-09-08T12:32:19.841Z,31.60
2023-09-08T12:34:47.075Z,32.00
2023-09-08T12:37:14.194Z,31.80
2023-09-08T12:39:41.400Z,31.70
2023-09-08T12:42:08.476Z,32.10
2023-09-08T12:44:35.626Z,32.10
2023-09-08T12:47:04.576Z,32.30
2023-09-08T12:49:31.609Z,32.40
2023-09-08T12:51:58.580Z,32.20
2023-09-08T12:54:26.155Z,32.40
2023-09-08T12:56:53.067Z,32.70
2023-09-08T12:59:20.000Z,32.70
2023-09-08T13:01:47.136Z,32.60
2023-09-08T13:04:15.413Z,32.60
2023-09-08T13:06:42.725Z,32.80
2023-09-08T13:09:09.832Z,32.90
2023-09-08T13:11:36.831Z,32.80
2023-09-08T13:14:03.889Z,32.90
2023-09-08T13:16:31.055Z,33.30
2023-09-08T13:18:57.989Z,33.20
2023-09-08T13:21:27.979Z,33.10
2023-09-08T13:23:55.076Z,33.30
2023-09-08T13:26:22.022Z,33.40
2023-09-08T13:28:48.926Z,33.40
2023-09-08T13:31:16.074Z,33.10
2023-09-08T13:33:43.004Z,33.40
2023-09-08T13:36:09.962Z,33.70
2023-09-08T13:38:39.216Z,33.70
2023-09-08T13:41:06.356Z,33.90
2023-09-08T13:43:33.525Z,33.80
2023-09-08T13:46:00.621Z,33.80
2023-09-08T13:48:28.294Z,33.80
2023-09-08T13:50:56.173Z,33.60
2023-09-08T13:53:41.908Z,33.70
2023-09-08T13:56:15.160Z,33.60
2023-09-08T13:58:49.596Z,33.60
2023-09-08T14:01:20.084Z,33.80
2023-09-08T14:06:21.341Z,33.60
2023-09-08T14:11:35.032Z,33.10
2023-09-08T14:14:11.248Z,32.80
2023-09-08T14:16:38.203Z,32.50
2023-09-08T14:19:05.272Z,32.10
2023-09-08T14:21:32.388Z,31.80
2023-09-08T14:23:59.385Z,31.80
2023-09-08T14:26:27.728Z,31.40
2023-09-08T14:28:54.891Z,31.20
2023-09-08T14:31:21.941Z,31.10
2023-09-08T14:33:49.123Z,31.10
2023-09-08T14:36:20.501Z,30.70
2023-09-08T14:38:47.582Z,30.60
2023-09-08T14:41:14.710Z,30.60
2023-09-08T14:43:43.481Z,30.60
2023-09-08T14:46:10.382Z,30.70
2023-09-08T14:48:37.392Z,30.60
2023-09-08T14:51:04.577Z,30.60
2023-09-08T14:53:31.559Z,30.70
2023-09-08T14:55:58.522Z,30.60
2023-09-08T14:58:25.836Z,30.70
2023-09-08T15:00:54.174Z,30.70
2023-09-08T15:03:21.267Z,30.80
2023-09-08T15:05:48.490Z,30.80
2023-09-08T15:08:15.411Z,30.70
2023-09-08T15:10:42.366Z,30.70
2023-09-08T15:13:09.793Z,30.60
2023-09-08T15:15:36.726Z,30.60
2023-09-08T15:18:05.554Z,30.50
2023-09-08T15:20:32.694Z,30.40
2023-09-08T15:22:59.562Z,30.40
2023-09-08T15:25:26.448Z,30.20
2023-09-08T15:27:53.513Z,30.10
2023-09-08T15:30:20.530Z,30.10
2023-09-08T15:32:47.429Z,30.10
2023-09-08T15:35:16.080Z,30.00
2023-09-08T15:37:42.992Z,29.90
2023-09-08T15:40:11.054Z,29.80
2023-09-08T15:42:38.128Z,29.90
2023-09-08T15:45:05.836Z,29.70
2023-09-08T15:47:32.819Z,29.70
2023-09-08T15:50:00.004Z,29.60
2023-09-08T15:52:28.314Z,29.50
2023-09-08T15:54:55.227Z,29.50
2023-09-08T15:57:22.370Z,29.40
2023-09-08T15:59:49.263Z,29.40
2023-09-08T16:02:16.255Z,29.40
2023-09-08T16:04:43.470Z,29.30
2023-09-08T16:07:10.448Z,29.20
2023-09-08T16:09:39.003Z,29.10
2023-09-08T16:12:06.452Z,29.10
2023-09-08T16:14:34.103Z,29.20
2023-09-08T16:17:00.982Z,29.20
2023-09-08T16:19:28.086Z,29.20
2023-09-08T16:21:54.966Z,29.20
2023-09-08T16:24:21.873Z,29.20
2023-09-08T16:26:50.492Z,29.20
2023-09-08T16:29:17.650Z,29.10
2023-09-08T16:31:44.606Z,29.20
2023-09-08T16:34:11.658Z,29.10
2023-09-08T16:36:38.580Z,29.10
2023-09-08T16:39:06.105Z,29.10
2023-09-08T16:41:33.135Z,29.10
2023-09-08T16:44:01.346Z,29.10
2023-09-08T16:46:28.231Z,29.00
2023-09-08T16:48:55.316Z,29.00
2023-09-08T16:51:22.275Z,29.00
2023-09-08T16:53:49.180Z,28.90
2023-09-08T16:56:16.496Z,28.90
2023-09-08T16:58:43.594Z,29.00
2023-09-08T17:01:12.066Z,29.00
2023-09-08T17:03:39.482Z,29.10
2023-09-08T17:06:06.929Z,29.10
2023-09-08T17:08:33.991Z,29.10
2023-09-08T17:11:05.826Z,29.10
2023-09-08T17:13:33.988Z,29.00
2023-09-08T17:16:01.647Z,29.00
2023-09-08T17:18:30.344Z,28.90
2023-09-08T17:20:57.500Z,28.80
2023-09-08T17:23:24.756Z,28.60
2023-09-08T17:25:51.930Z,28.40
2023-09-08T17:28:19.056Z,28.20
2023-09-08T17:30:47.423Z,28.00
2023-09-08T17:33:14.560Z,27.80
2023-09-08T17:35:43.075Z,27.70
2023-09-08T17:38:10.202Z,27.40
2023-09-08T17:40:37.307Z,27.30
2023-09-08T17:43:04.776Z,27.30
2023-09-08T17:45:31.937Z,27.20
2023-09-08T17:47:59.193Z,27.10
2023-09-08T17:50:26.323Z,27.00
2023-09-08T17:52:54.736Z,26.90
2023-09-08T17:55:21.878Z,26.80
2023-09-08T17:57:49.674Z,26.60
2023-09-08T18:00:17.561Z,26.60
2023-09-08T18:02:45.115Z,26.40
2023-09-08T18:05:12.412Z,26.40
2023-09-08T18:07:39.489Z,26.40
2023-09-08T18:10:09.093Z,26.20
2023-09-08T18:12:36.154Z,26.20
2023-09-08T18:15:03.359Z,26.20
2023-09-08T18:17:30.404Z,26.00
2023-09-08T18:19:57.466Z,25.90
2023-09-08T18:22:24.938Z,25.80
2023-09-08T18:24:51.988Z,25.70
2023-09-08T18:27:20.760Z,25.70
2023-09-08T18:29:48.946Z,25.70
2023-09-08T18:32:16.203Z,25.60
2023-09-08T18:34:43.608Z,25.60
2023-09-08T18:37:10.766Z,25.50
2023-09-08T18:39:40.499Z,25.40
2023-09-08T18:42:07.647Z,25.40
2023-09-08T18:44:36.192Z,25.40
2023-09-08T18:47:03.592Z,25.20
2023-09-08T18:49:30.709Z,25.20
2023-09-08T18:51:57.724Z,25.20
2023-09-08T18:54:24.757Z,25.10
2023-09-08T18:56:51.836Z,25.00
2023-09-08T18:59:18.874Z,25.00
2023-09-08T19:01:47.250Z,25.00
2023-09-08T19:04:14.398Z,24.80
2023-09-08T19:06:41.502Z,24.80
2023-09-08T19:09:08.594Z,24.70
2023-09-08T19:11:35.833Z,24.70
2023-09-08T19:14:02.947Z,24.70
2023-09-08T19:16:30.015Z,24.60
2023-09-08T19:18:58.458Z,24.50
2023-09-08T19:21:25.814Z,24.40
2023-09-08T19:23:52.865Z,24.40
2023-09-08T19:26:19.936Z,24.40
2023-09-08T19:28:46.946Z,24.40
2023-09-08T19:31:14.079Z,24.40
2023-09-08T19:33:41.430Z,24.30
2023-09-08T19:36:10.415Z,24.30
2023-09-08T19:38:37.553Z,24.20
2023-09-08T19:41:05.148Z,24.20
2023-09-08T19:43:32.480Z,24.10
2023-09-08T19:46:04.490Z,24.10
2023-09-08T19:48:32.851Z,24.10
2023-09-08T19:50:59.956Z,23.90
2023-09-08T19:53:28.490Z,23.90
2023-09-08T19:55:55.603Z,23.90
2023-09-08T19:58:22.818Z,23.80
2023-09-08T20:00:50.958Z,23.80
2023-09-08T20:03:18.179Z,23.80
2023-09-08T20:05:45.663Z,23.80
2023-09-08T20:08:13.182Z,23.70
2023-09-08T20:10:41.835Z,23.60
2023-09-08T20:13:09.034Z,23.60
2023-09-08T20:15:36.501Z,23.60
2023-09-08T20:18:03.794Z,23.50
2023-09-08T20:20:30.914Z,23.50
2023-09-08T20:22:58.028Z,23.40
2023-09-08T20:25:25.112Z,23.40
2023-09-08T20:27:53.870Z,23.40
2023-09-08T20:30:21.068Z,23.30
2023-09-08T20:32:48.251Z,23.30
2023-09-08T20:35:15.632Z,23.30
2023-09-08T20:37:42.944Z,23.30
2023-09-08T20:40:10.997Z,23.20
2023-09-08T20:42:38.175Z,23.20
2023-09-08T20:45:07.773Z,23.20
2023-09-08T20:47:34.906Z,23.10
2023-09-08T20:50:02.066Z,23.10
2023-09-08T20:52:29.151Z,23.00
2023-09-08T20:54:56.209Z,23.00
2023-09-08T20:57:23.301Z,22.90
2023-09-08T20:59:50.390Z,22.90
2023-09-08T21:02:18.820Z,22.90
2023-09-08T21:04:45.954Z,22.90
2023-09-08T21:07:13.011Z,22.80
2023-09-08T21:09:40.132Z,22.70
2023-09-08T21:12:08.139Z,22.70
2023-09-08T21:14:35.353Z,22.70
2023-09-08T21:17:02.496Z,22.70
2023-09-08T21:19:31.249Z,22.70
2023-09-08T21:21:58.406Z,22.70
2023-09-08T21:24:25.569Z,22.60
2023-09-08T21:26:52.831Z,22.60
2023-09-08T21:29:19.897Z,22.50
2023-09-08T21:31:46.961Z,22.50
2023-09-08T21:34:14.005Z,22.50
2023-09-08T21:36:42.467Z,22.40
2023-09-08T21:39:09.574Z,22.40
2023-09-08T21:41:36.935Z,22.40
2023-09-08T21:44:04.371Z,22.40
2023-09-08T21:46:31.555Z,22.40
2023-09-08T21:48:58.672Z,22.30
2023-09-08T21:51:25.871Z,22.40
2023-09-08T21:53:54.326Z,22.40
2023-09-08T21:56:21.478Z,22.40
2023-09-08T21:58:48.531Z,22.40
2023-09-08T22:01:15.596Z,22.40
2023-09-08T22:03:43.097Z,22.40
2023-09-08T22:06:10.506Z,22.30
2023-09-08T22:08:37.757Z,22.30
2023-09-08T22:11:06.643Z,22.30
2023-09-08T22:13:37.204Z,22.30
2023-09-08T22:16:05.161Z,22.20
2023-09-08T22:18:32.390Z,22.10
2023-09-08T22:20:59.575Z,22.00
2023-09-08T22:23:26.969Z,22.10
2023-09-08T22:25:54.102Z,22.00
2023-09-08T22:28:22.538Z,21.80
2023-09-08T22:30:49.567Z,21.90
2023-09-08T22:33:16.772Z,21.70
2023-09-08T22:35:43.986Z,21.70
2023-09-08T22:38:11.019Z,21.60
2023-09-08T22:40:38.776Z,21.60
2023-09-08T22:43:05.857Z,21.60
2023-09-08T22:45:34.623Z,21.60
2023-09-08T22:48:01.819Z,21.60
2023-09-08T22:50:28.973Z,21.60
2023-09-08T22:52:56.061Z,21.50
2023-09-08T22:55:25.790Z,21.60
2023-09-08T22:57:53.828Z,21.50
2023-09-08T23:00:21.161Z,21.50
2023-09-08T23:02:49.749Z,21.40
2023-09-08T23:05:16.879Z,21.40
2023-09-08T23:07:44.206Z,21.40
2023-09-08T23:10:11.721Z,21.40
2023-09-08T23:12:38.808Z,21.40
2023-09-08T23:15:07.079Z,21.40
2023-09-08T23:17:34.895Z,21.40
2023-09-08T23:20:03.807Z,21.30
2023-09-08T23:22:30.912Z,21.30
2023-09-08T23:24:58.008Z,21.30
2023-09-08T23:27:25.221Z,21.30
2023-09-08T23:29:52.341Z,21.20
2023-09-08T23:32:19.693Z,21.10
2023-09-08T23:34:46.816Z,21.10
2023-09-08T23:37:15.868Z,21.10
2023-09-08T23:39:43.037Z,21.10
2023-09-08T23:42:10.172Z,21.10
2023-09-08T23:44:37.222Z,21.10
2023-09-08T23:47:05.860Z,21.00
2023-09-08T23:49:33.213Z,21.00
2023-09-08T23:52:00.894Z,21.00
2023-09-08T23:54:29.405Z,20.90
2023-09-08T23:56:57.473Z,20.90
2023-09-08T23:59:24.693Z,20.80
